Time;durP1;ratioP1;P1;durP2;ratioP2;P2;SDS_P1;SDS_P2;PMS_P1;PMS_P2;Temp;Humidity;BMP_temperature;BMP_pressure;BME280_temperature;BME280_humidity;BME280_pressure;Samples;Min_cycle;Max_cycle;Signal;HPM_P1;HPM_P2
2023/03/07 00:01:34;;;;;;;11.10;7.18;;;;;;;0.27;100.00;99178.94;5060025;28;20617;-47
2023/03/07 00:04:00;;;;;;;10.15;7.88;;;;;;;0.20;100.00;99180.88;5055832;28;20187;-50
2023/03/07 00:06:26;;;;;;;11.63;8.80;;;;;;;0.19;100.00;99183.53;5060255;28;20257;-47
2023/03/07 00:08:54;;;;;;;14.30;9.63;;;;;;;0.22;100.00;99166.78;5065486;28;20237;-46
2023/03/07 00:11:19;;;;;;;15.27;9.88;;;;;;;0.28;100.00;99167.50;5059384;28;20191;-51
2023/03/07 00:13:45;;;;;;;14.25;10.02;;;;;;;0.19;100.00;99163.31;5058960;28;20199;-46
2023/03/07 00:16:16;;;;;;;13.80;11.15;;;;;;;0.32;100.00;99163.91;5061315;28;20179;-48
2023/03/07 00:18:42;;;;;;;13.95;10.43;;;;;;;0.28;100.00;99158.75;5055840;28;20573;-49
2023/03/07 00:21:13;;;;;;;17.20;11.73;;;;;;;0.24;100.00;99143.91;5057109;28;20219;-47
2023/03/07 00:23:40;;;;;;;15.05;11.60;;;;;;;0.25;100.00;99154.41;5054215;28;20518;-46
2023/03/07 00:26:15;;;;;;;16.35;12.55;;;;;;;0.20;100.00;99132.59;5057882;28;20167;-47
2023/03/07 00:28:42;;;;;;;18.27;13.15;;;;;;;0.20;100.00;99122.91;5065100;28;20214;-47
2023/03/07 00:31:10;;;;;;;17.30;13.80;;;;;;;0.19;100.00;99123.81;5070474;28;20232;-48
2023/03/07 00:33:36;;;;;;;16.98;14.18;;;;;;;0.26;100.00;99118.41;5041160;28;20223;-50
2023/03/07 00:36:07;;;;;;;18.65;15.05;;;;;;;0.22;100.00;99117.63;5062965;28;20669;-47
2023/03/07 00:38:34;;;;;;;18.15;14.75;;;;;;;0.31;100.00;99111.28;5057872;28;20190;-49
2023/03/07 00:41:07;;;;;;;17.58;14.15;;;;;;;0.25;100.00;99091.19;5064275;28;20425;-51
2023/03/07 00:43:33;;;;;;;20.98;15.90;;;;;;;0.25;100.00;99090.34;5059597;28;20600;-47
2023/03/07 00:46:00;;;;;;;20.48;15.35;;;;;;;0.28;100.00;99091.13;5052553;28;20669;-49
2023/03/07 00:48:26;;;;;;;19.65;15.73;;;;;;;0.31;100.00;99082.31;5056504;28;20461;-47
2023/03/07 00:50:52;;;;;;;20.75;16.35;;;;;;;0.23;100.00;99074.56;5044468;28;20573;-47
2023/03/07 00:53:18;;;;;;;20.58;15.77;;;;;;;0.20;100.00;99080.78;5068268;28;20202;-49
2023/03/07 00:56:24;;;;;;;19.20;15.73;;;;;;;0.28;100.00;99077.09;5072046;28;20179;-46
2023/03/07 00:58:50;;;;;;;20.27;16.20;;;;;;;0.28;100.00;99059.50;5010053;28;20183;-46
2023/03/07 01:01:22;;;;;;;22.83;16.73;;;;;;;0.16;100.00;99044.88;5004417;28;20659;-49
2023/03/07 01:03:48;;;;;;;22.60;16.45;;;;;;;0.15;100.00;99048.44;5025739;28;20640;-47
2023/03/07 01:06:16;;;;;;;20.85;16.90;;;;;;;0.12;100.00;99050.28;5041169;28;20171;-48
2023/03/07 01:08:43;;;;;;;22.75;17.42;;;;;;;0.11;100.00;99032.72;5060914;28;20566;-46
2023/03/07 01:11:09;;;;;;;22.98;17.40;;;;;;;0.09;100.00;99045.06;5050527;28;20183;-49
2023/03/07 01:13:36;;;;;;;20.77;16.23;;;;;;;0.15;100.00;99047.56;5053099;28;20203;-50
2023/03/07 01:16:11;;;;;;;21.33;17.10;;;;;;;0.18;100.00;99039.59;5066393;28;20687;-48
2023/03/07 01:18:38;;;;;;;21.23;17.38;;;;;;;0.20;100.00;99020.22;5050522;28;20207;-48
2023/03/07 01:21:23;;;;;;;22.13;17.20;;;;;;;0.19;100.00;99009.72;5048297;28;20673;-46
2023/03/07 01:23:50;;;;;;;22.23;17.23;;;;;;;0.20;100.00;99004.41;5049304;28;20234;-51
2023/03/07 01:26:18;;;;;;;23.30;17.45;;;;;;;0.24;100.00;98997.31;5057725;28;20189;-48
2023/03/07 01:28:44;;;;;;;25.25;18.65;;;;;;;0.26;100.00;98994.63;5059851;28;20509;-48
2023/03/07 01:31:10;;;;;;;22.58;17.30;;;;;;;0.27;100.00;98983.19;5050525;28;20179;-52
2023/03/07 01:33:36;;;;;;;23.80;18.80;;;;;;;0.31;100.00;98980.44;5038367;28;20192;-48
2023/03/07 01:36:02;;;;;;;25.20;18.92;;;;;;;0.26;100.00;98961.22;5039381;28;20194;-48
2023/03/07 01:38:32;;;;;;;27.63;20.30;;;;;;;0.31;100.00;98961.13;5045703;28;20210;-48
2023/03/07 01:41:01;;;;;;;25.13;19.73;;;;;;;0.33;100.00;98962.81;5064186;28;20179;-47
2023/03/07 01:43:30;;;;;;;25.67;18.92;;;;;;;0.37;100.00;98963.59;5049927;28;20195;-46
2023/03/07 01:46:17;;;;;;;25.85;19.58;;;;;;;0.36;100.00;98956.59;5056454;28;20186;-48
2023/03/07 01:48:59;;;;;;;26.95;20.15;;;;;;;0.36;100.00;98941.66;5060856;28;20199;-49
2023/03/07 01:51:27;;;;;;;27.48;20.08;;;;;;;0.40;100.00;98947.72;5027517;28;20174;-48
2023/03/07 01:53:57;;;;;;;26.65;19.85;;;;;;;0.38;100.00;98929.31;5041368;28;20525;-48
2023/03/07 01:56:23;;;;;;;27.40;20.25;;;;;;;0.39;100.00;98925.78;5060535;28;20183;-49
2023/03/07 01:58:50;;;;;;;26.88;20.58;;;;;;;0.45;100.00;98913.34;5057765;28;20270;-49
2023/03/07 02:01:17;;;;;;;28.85;21.60;;;;;;;0.41;100.00;98912.53;5040608;28;20214;-52
2023/03/07 02:04:25;;;;;;;25.63;20.30;;;;;;;0.46;100.00;98904.50;5050870;28;20220;-52
2023/03/07 02:06:50;;;;;;;26.60;19.90;;;;;;;0.45;100.00;98910.69;5010416;28;20198;-47
2023/03/07 02:09:19;;;;;;;28.13;21.58;;;;;;;0.47;100.00;98903.63;5056044;28;20842;-47
2023/03/07 02:11:47;;;;;;;26.60;20.20;;;;;;;0.45;100.00;98884.34;5041947;28;20179;-49
2023/03/07 02:14:12;;;;;;;29.10;21.45;;;;;;;0.50;100.00;98887.72;5059541;28;20174;-46
2023/03/07 02:16:38;;;;;;;28.55;21.67;;;;;;;0.46;100.00;98878.16;5047482;28;20170;-47
2023/03/07 02:19:34;;;;;;;28.25;21.17;;;;;;;0.53;100.00;98866.56;5035060;28;20673;-47
2023/03/07 02:22:12;;;;;;;29.92;22.38;;;;;;;0.52;100.00;98865.69;5037365;28;20210;-51
2023/03/07 02:24:47;;;;;;;33.00;23.52;;;;;;;0.59;100.00;98855.81;5055130;28;20201;-47
2023/03/07 02:27:13;;;;;;;32.90;23.33;;;;;;;0.55;100.00;98855.06;5045679;28;20177;-47
2023/03/07 02:29:39;;;;;;;31.05;23.75;;;;;;;0.56;100.00;98861.19;5046508;28;20179;-48
2023/03/07 02:32:06;;;;;;;32.40;24.08;;;;;;;0.49;100.00;98846.47;5042313;28;20194;-46
2023/03/07 02:34:32;;;;;;;31.15;23.70;;;;;;;0.53;100.00;98834.94;5042228;28;20666;-47
2023/03/07 02:37:12;;;;;;;35.67;25.67;;;;;;;0.50;100.00;98835.03;5045352;28;20194;-48
2023/03/07 02:39:40;;;;;;;36.33;25.70;;;;;;;0.51;100.00;98834.13;5063846;28;20179;-52
2023/03/07 02:42:10;;;;;;;37.47;25.80;;;;;;;0.54;100.00;98829.59;5043134;28;20191;-47
2023/03/07 02:44:45;;;;;;;39.72;28.25;;;;;;;0.58;100.00;98825.97;5048492;28;20285;-45
2023/03/07 02:47:11;;;;;;;35.20;25.42;;;;;;;0.56;100.00;98821.66;5043584;28;20184;-49
2023/03/07 02:49:36;;;;;;;35.97;25.85;;;;;;;0.61;100.00;98818.00;5056573;28;20266;-49
2023/03/07 02:52:03;;;;;;;40.72;27.65;;;;;;;0.63;100.00;98803.91;5058930;28;20240;-50
2023/03/07 02:54:30;;;;;;;37.33;27.23;;;;;;;0.66;100.00;98793.28;5047361;28;20174;-47
2023/03/07 02:56:57;;;;;;;42.10;27.73;;;;;;;0.70;100.00;98789.63;5042595;28;20229;-50
2023/03/07 02:59:22;;;;;;;41.58;29.02;;;;;;;0.75;100.00;98793.84;5032829;28;20174;-46
2023/03/07 03:01:48;;;;;;;43.00;29.05;;;;;;;0.74;100.00;98778.94;5042005;28;20535;-47
2023/03/07 03:04:14;;;;;;;41.60;28.42;;;;;;;0.75;100.00;98780.66;5042451;28;20187;-47
2023/03/07 03:06:41;;;;;;;47.40;30.42;;;;;;;0.75;100.00;98775.41;5063840;28;20175;-51
2023/03/07 03:09:07;;;;;;;45.85;29.48;;;;;;;0.81;100.00;98764.66;5045852;28;20199;-44
2023/03/07 03:11:32;;;;;;;44.75;30.27;;;;;;;0.82;100.00;98763.75;5051265;28;20347;-48
2023/03/07 03:13:58;;;;;;;45.03;29.45;;;;;;;0.90;100.00;98749.47;5063961;28;20312;-47
2023/03/07 03:16:24;;;;;;;44.30;29.45;;;;;;;0.87;100.00;98746.91;5065274;28;20213;-51
2023/03/07 03:18:49;;;;;;;41.92;28.63;;;;;;;0.90;100.00;98733.66;5063069;28;20596;-50
2023/03/07 03:21:15;;;;;;;42.25;28.08;;;;;;;0.93;100.00;98734.41;5069921;28;20182;-47
2023/03/07 03:23:40;;;;;;;42.55;27.67;;;;;;;0.92;100.00;98729.16;5042733;28;20199;-49
2023/03/07 03:26:10;;;;;;;41.85;27.50;;;;;;;0.93;100.00;98723.84;5052298;28;20171;-49
2023/03/07 03:28:40;;;;;;;41.20;26.75;;;;;;;1.05;100.00;98700.63;5057798;28;20214;-52
2023/03/07 03:31:08;;;;;;;39.65;26.13;;;;;;;1.05;100.00;98712.06;5050857;28;20566;-47
2023/03/07 03:33:35;;;;;;;42.03;25.42;;;;;;;1.04;100.00;98718.22;5048203;28;20194;-53
2023/03/07 03:36:07;;;;;;;38.00;25.48;;;;;;;1.05;100.00;98712.06;5049207;28;20190;-48
2023/03/07 03:38:33;;;;;;;35.47;23.60;;;;;;;1.08;100.00;98706.66;5051759;28;20171;-49
2023/03/07 03:41:03;;;;;;;35.42;22.85;;;;;;;1.20;100.00;98710.66;5064844;28;20551;-50
2023/03/07 03:43:29;;;;;;;32.38;21.63;;;;;;;1.19;100.00;98715.06;5060467;28;20199;-48
2023/03/07 03:45:55;;;;;;;31.02;21.35;;;;;;;1.18;100.00;98702.81;5046614;28;20241;-51
2023/03/07 03:48:22;;;;;;;29.10;20.42;;;;;;;1.23;100.00;98694.72;5047203;28;20708;-47
2023/03/07 03:50:48;;;;;;;29.05;19.50;;;;;;;1.22;100.00;98698.28;5052896;28;20186;-48
2023/03/07 03:53:14;;;;;;;26.88;18.42;;;;;;;1.24;100.00;98689.38;5043775;28;20287;-47
2023/03/07 03:55:40;;;;;;;26.42;17.48;;;;;;;1.25;100.00;98679.72;5049902;28;20269;-46
2023/03/07 03:58:05;;;;;;;25.08;16.83;;;;;;;1.20;100.00;98671.97;5039663;28;20595;-48
2023/03/07 04:00:31;;;;;;;23.83;16.63;;;;;;;1.17;100.00;98669.41;5058033;28;20172;-47
2023/03/07 04:02:56;;;;;;;24.65;15.50;;;;;;;1.16;100.00;98662.44;5043134;28;20237;-46
2023/03/07 04:05:22;;;;;;;21.98;15.45;;;;;;;1.16;100.00;98656.28;5040144;28;20172;-48
2023/03/07 04:07:48;;;;;;;24.27;15.20;;;;;;;1.17;100.00;98643.03;5047138;28;20211;-51
2023/03/07 04:10:14;;;;;;;24.40;13.98;;;;;;;1.16;100.00;98630.78;5041304;28;20210;-48
2023/03/07 04:12:40;;;;;;;19.50;14.27;;;;;;;1.16;100.00;98628.16;5034909;28;20222;-50
2023/03/07 04:15:06;;;;;;;20.40;13.40;;;;;;;1.21;100.00;98618.28;5047665;28;20175;-45
2023/03/07 04:17:32;;;;;;;22.75;14.00;;;;;;;1.26;100.00;98622.53;5067645;28;20179;-49
2023/03/07 04:19:59;;;;;;;22.73;13.27;;;;;;;1.31;100.00;98625.88;5028645;28;20174;-47
2023/03/07 04:22:25;;;;;;;20.73;12.57;;;;;;;1.37;100.00;98623.88;5051444;28;20198;-47
2023/03/07 04:24:50;;;;;;;19.40;12.45;;;;;;;1.40;100.00;98620.25;5042260;28;20602;-48
2023/03/07 04:27:16;;;;;;;16.40;10.98;;;;;;;1.44;100.00;98601.63;5052575;28;20538;-46
2023/03/07 04:29:42;;;;;;;18.67;11.52;;;;;;;1.48;100.00;98604.16;5048615;28;20243;-48
2023/03/07 04:32:20;;;;;;;21.17;11.48;;;;;;;1.48;100.00;98589.16;5063407;28;20198;-48
2023/03/07 04:34:47;;;;;;;23.13;10.63;;;;;;;1.49;100.00;98574.19;5060589;28;20175;-47
2023/03/07 04:37:12;;;;;;;16.90;9.63;;;;;;;1.51;100.00;98560.03;5065588;28;20687;-47
2023/03/07 04:39:38;;;;;;;14.85;9.23;;;;;;;1.57;100.00;98549.22;5050342;28;20178;-46
2023/03/07 04:42:05;;;;;;;16.67;10.00;;;;;;;1.60;100.00;98549.13;5045291;28;20334;-45
2023/03/07 04:44:34;;;;;;;20.48;10.07;;;;;;;1.61;100.00;98542.91;5066126;28;20170;-48
2023/03/07 04:46:59;;;;;;;19.60;9.60;;;;;;;1.60;100.00;98517.47;5064020;28;20183;-49
2023/03/07 04:49:25;;;;;;;20.63;9.35;;;;;;;1.63;100.00;98512.06;5042445;28;20218;-50
2023/03/07 04:51:50;;;;;;;18.00;8.43;;;;;;;1.69;100.00;98516.25;5056251;28;20617;-48
2023/03/07 04:54:17;;;;;;;21.75;8.90;;;;;;;1.62;100.00;98497.16;5041846;28;20663;-50
2023/03/07 04:56:45;;;;;;;13.18;8.00;;;;;;;1.68;100.00;98509.22;5042298;28;20650;-48
2023/03/07 04:59:11;;;;;;;14.05;7.10;;;;;;;1.68;100.00;98485.47;5046527;28;20229;-49
2023/03/07 05:01:36;;;;;;;15.57;7.50;;;;;;;1.75;100.00;98481.69;5048461;28;20174;-47
2023/03/07 05:04:02;;;;;;;18.85;7.85;;;;;;;1.70;100.00;98464.31;5060863;28;20189;-48
2023/03/07 05:06:28;;;;;;;14.27;6.90;;;;;;;1.67;100.00;98481.13;5072377;28;20184;-50
2023/03/07 05:08:53;;;;;;;14.73;6.70;;;;;;;1.74;100.00;98466.75;5051172;28;20287;-49
2023/03/07 05:11:19;;;;;;;13.82;6.75;;;;;;;1.70;100.00;98482.78;5057619;28;20207;-48
2023/03/07 05:13:45;;;;;;;16.13;6.63;;;;;;;1.68;100.00;98469.63;5050573;28;20191;-47
2023/03/07 05:16:16;;;;;;;15.40;6.75;;;;;;;1.71;100.00;98450.19;5050750;28;20266;-49
2023/03/07 05:18:42;;;;;;;11.40;5.40;;;;;;;1.71;100.00;98431.72;5047533;28;20163;-49
2023/03/07 05:21:07;;;;;;;13.00;6.03;;;;;;;1.77;100.00;98448.16;5057990;28;20187;-49
2023/03/07 05:23:33;;;;;;;14.00;5.57;;;;;;;1.81;100.00;98425.97;5048254;28;20309;-48
2023/03/07 05:25:58;;;;;;;11.07;4.90;;;;;;;1.79;100.00;98443.69;5067241;28;20202;-52
2023/03/07 05:28:24;;;;;;;16.70;4.50;;;;;;;1.78;100.00;98412.06;5044612;28;20203;-47
2023/03/07 05:30:51;;;;;;;12.48;4.53;;;;;;;1.79;100.00;98419.03;5048677;28;20213;-47
2023/03/07 05:33:17;;;;;;;12.60;4.40;;;;;;;1.76;100.00;98401.56;5050403;28;20578;-51
2023/03/07 05:35:42;;;;;;;14.20;4.60;;;;;;;1.75;100.00;98404.25;5049347;28;20175;-47
2023/03/07 05:38:10;;;;;;;9.82;4.00;;;;;;;1.71;100.00;98397.41;5050858;28;20160;-49
2023/03/07 05:40:36;;;;;;;12.50;4.97;;;;;;;1.71;100.00;98389.50;5033766;28;20175;-48
2023/03/07 05:43:02;;;;;;;16.52;4.78;;;;;;;1.69;100.00;98388.69;5043892;28;20209;-49
2023/03/07 05:45:28;;;;;;;13.98;3.60;;;;;;;1.67;100.00;98374.69;5038107;28;20190;-48
2023/03/07 05:47:53;;;;;;;10.52;3.55;;;;;;;1.62;100.00;98366.97;5058114;28;20199;-50
2023/03/07 05:50:19;;;;;;;10.68;3.85;;;;;;;1.64;100.00;98357.22;5053842;28;20189;-49
2023/03/07 05:52:46;;;;;;;10.98;3.80;;;;;;;1.63;100.00;98352.84;5050666;28;20555;-49
2023/03/07 05:55:11;;;;;;;7.78;2.95;;;;;;;1.69;100.00;98338.53;5040548;28;20172;-50
2023/03/07 05:57:37;;;;;;;10.48;2.90;;;;;;;1.62;100.00;98348.50;5047390;28;20253;-50
2023/03/07 06:00:05;;;;;;;14.68;3.67;;;;;;;1.59;100.00;98345.97;5046692;28;20191;-49
2023/03/07 06:02:40;;;;;;;12.48;2.75;;;;;;;1.62;100.00;98327.38;5055769;28;20273;-49
2023/03/07 06:05:06;;;;;;;10.20;2.38;;;;;;;1.70;100.00;98327.91;5048625;28;20187;-49
2023/03/07 06:07:31;;;;;;;11.35;2.78;;;;;;;1.70;100.00;98324.41;5055847;28;20190;-51
2023/03/07 06:09:57;;;;;;;10.32;2.38;;;;;;;1.58;100.00;98312.59;5054518;28;20190;-51
2023/03/07 06:12:23;;;;;;;9.48;2.70;;;;;;;1.58;100.00;98313.44;5048520;28;20190;-51
2023/03/07 06:14:48;;;;;;;15.23;2.42;;;;;;;1.56;100.00;98330.28;5052299;28;20176;-51
2023/03/07 06:17:14;;;;;;;9.60;2.28;;;;;;;1.58;100.00;98353.03;5048951;28;20672;-51
2023/03/07 06:19:41;;;;;;;9.88;1.90;;;;;;;1.61;100.00;98352.91;5049821;28;20190;-51
2023/03/07 06:22:07;;;;;;;14.90;2.53;;;;;;;1.63;100.00;98345.78;5058139;28;20300;-51
2023/03/07 06:24:33;;;;;;;11.30;2.20;;;;;;;1.66;100.00;98344.78;5042063;28;20183;-51
2023/03/07 06:27:00;;;;;;;11.63;2.25;;;;;;;1.67;100.00;98337.75;5052184;28;20630;-50
2023/03/07 06:29:26;;;;;;;16.05;2.88;;;;;;;1.72;100.00;98335.75;5038183;28;20210;-52
2023/03/07 06:31:52;;;;;;;15.05;2.42;;;;;;;1.75;100.00;98317.13;5038565;28;20210;-51
2023/03/07 06:34:18;;;;;;;11.35;2.58;;;;;;;1.81;100.00;98332.72;5061270;28;20181;-51
2023/03/07 06:36:47;;;;;;;13.73;2.40;;;;;;;1.79;100.00;98321.38;5045588;28;20175;-52
2023/03/07 06:39:15;;;;;;;11.90;2.05;;;;;;;1.89;100.00;98313.94;5050232;28;20273;-51
2023/03/07 06:41:42;;;;;;;9.23;2.13;;;;;;;1.78;100.00;98330.22;5048116;23;20216;-43
2023/03/07 06:44:09;;;;;;;11.68;2.42;;;;;;;1.88;100.00;98325.41;5048870;28;20651;-41
2023/03/07 06:46:35;;;;;;;13.77;2.17;;;;;;;1.91;100.00;98327.91;5022576;28;20251;-44
2023/03/07 06:49:06;;;;;;;10.75;2.05;;;;;;;1.86;100.00;98343.97;5030353;28;20192;-43
2023/03/07 06:51:32;;;;;;;11.77;2.55;;;;;;;1.88;100.00;98333.31;5051750;28;20312;-42
2023/03/07 06:53:59;;;;;;;12.15;1.95;;;;;;;1.83;100.00;98341.44;5036414;28;20160;-42
2023/03/07 06:56:28;;;;;;;14.40;2.47;;;;;;;1.89;100.00;98345.63;5035377;28;20252;-43
2023/03/07 06:58:54;;;;;;;18.38;2.42;;;;;;;1.91;100.00;98328.78;5035795;28;20626;-43
2023/03/07 07:01:21;;;;;;;9.80;2.53;;;;;;;1.93;100.00;98353.31;5035503;28;20317;-44
2023/03/07 07:03:49;;;;;;;12.65;2.00;;;;;;;2.02;100.00;98341.50;5035262;28;20192;-42
2023/03/07 07:06:15;;;;;;;12.57;2.55;;;;;;;2.04;100.00;98344.94;5035226;28;20163;-43
2023/03/07 07:08:41;;;;;;;15.73;2.05;;;;;;;2.18;100.00;98357.53;5036522;28;20320;-42
2023/03/07 07:11:08;;;;;;;14.50;2.85;;;;;;;2.20;100.00;98366.25;5035460;28;20182;-43
2023/03/07 07:13:33;;;;;;;15.45;2.75;;;;;;;2.24;100.00;98362.56;5050744;28;20200;-41
2023/03/07 07:16:05;;;;;;;15.93;3.60;;;;;;;2.25;100.00;98388.03;5034452;28;20163;-42
2023/03/07 07:18:32;;;;;;;10.55;2.22;;;;;;;2.19;100.00;98381.25;5034005;28;20168;-42
2023/03/07 07:20:58;;;;;;;10.35;2.30;;;;;;;2.01;100.00;98388.19;5035195;28;20728;-41
2023/03/07 07:23:27;;;;;;;11.60;2.22;;;;;;;1.98;100.00;98398.88;5034958;28;20287;-41
2023/03/07 07:25:53;;;;;;;9.98;2.58;;;;;;;1.94;100.00;98392.00;5034836;28;20271;-41
2023/03/07 07:28:19;;;;;;;13.40;2.75;;;;;;;1.78;100.00;98396.22;5034551;28;20349;-43
2023/03/07 07:30:44;;;;;;;15.32;3.25;;;;;;;1.93;100.00;98413.22;5035259;28;20179;-42
2023/03/07 07:33:12;;;;;;;11.27;2.00;;;;;;;2.29;100.00;98421.31;5034306;28;20196;-41
2023/03/07 07:35:38;;;;;;;17.38;2.70;;;;;;;2.28;100.00;98397.63;5033649;28;20754;-43
2023/03/07 07:38:04;;;;;;;14.55;3.20;;;;;;;2.34;100.00;98399.97;5033966;28;20164;-42
2023/03/07 07:40:30;;;;;;;13.70;2.30;;;;;;;2.33;100.00;98425.56;5034586;28;20198;-42
2023/03/07 07:42:55;;;;;;;21.13;3.22;;;;;;;2.32;100.00;98412.41;5050056;28;20253;-40
2023/03/07 07:45:31;;;;;;;12.85;2.95;;;;;;;2.45;100.00;98411.81;5052794;28;20181;-41
2023/03/07 07:47:57;;;;;;;20.63;3.25;;;;;;;2.42;100.00;98416.38;5054590;28;20610;-41
2023/03/07 07:50:22;;;;;;;16.65;2.63;;;;;;;2.45;100.00;98424.19;5056077;28;20221;-41
2023/03/07 07:52:51;;;;;;;15.57;2.50;;;;;;;2.41;100.00;98431.38;5054095;28;20575;-43
2023/03/07 07:55:16;;;;;;;10.82;2.90;;;;;;;2.51;100.00;98418.59;5053941;28;20261;-41
2023/03/07 07:57:43;;;;;;;5.82;1.50;;;;;;;2.55;100.00;98441.34;5054085;28;20177;-43
2023/03/07 08:00:11;;;;;;;15.52;2.10;;;;;;;2.34;100.00;98432.56;5054796;28;20232;-42
2023/03/07 08:02:39;;;;;;;13.77;2.15;;;;;;;2.24;100.00;98453.22;5051991;28;20188;-43
2023/03/07 08:05:06;;;;;;;15.45;2.08;;;;;;;2.35;100.00;98451.91;5052767;28;20186;-42
2023/03/07 08:07:32;;;;;;;16.40;2.22;;;;;;;2.30;100.00;98454.75;5052565;28;20246;-41
2023/03/07 08:09:58;;;;;;;9.52;1.90;;;;;;;2.34;100.00;98464.28;5053021;28;20195;-41
2023/03/07 08:12:24;;;;;;;14.45;2.47;;;;;;;2.37;100.00;98450.06;5052244;28;20764;-41
2023/03/07 08:14:49;;;;;;;10.15;2.15;;;;;;;2.39;100.00;98467.56;5052681;28;20548;-42
2023/03/07 08:17:15;;;;;;;13.07;2.38;;;;;;;2.38;100.00;98475.56;5052947;28;20175;-40
2023/03/07 08:19:40;;;;;;;8.80;2.08;;;;;;;2.35;100.00;98489.75;5050716;28;20156;-43
2023/03/07 08:22:06;;;;;;;11.90;3.03;;;;;;;2.64;100.00;98501.72;5051919;28;20592;-42
2023/03/07 08:24:33;;;;;;;7.32;1.85;;;;;;;3.09;100.00;98468.88;5052271;28;20164;-41
2023/03/07 08:26:59;;;;;;;15.77;2.40;;;;;;;3.17;100.00;98459.72;5051549;28;20167;-42
2023/03/07 08:29:25;;;;;;;14.35;1.80;;;;;;;3.36;100.00;98470.31;5051536;28;20244;-39
2023/03/07 08:31:52;;;;;;;7.70;1.85;;;;;;;3.50;100.00;98458.16;5052209;28;20211;-41
2023/03/07 08:34:18;;;;;;;9.38;1.98;;;;;;;3.66;98.34;98458.25;5051894;28;20280;-45
2023/03/07 08:36:44;;;;;;;8.57;1.77;;;;;;;3.59;97.15;98478.03;5051026;28;20633;-41
2023/03/07 08:39:10;;;;;;;7.57;1.52;;;;;;;3.67;95.86;98453.81;5051352;28;20174;-41
2023/03/07 08:41:35;;;;;;;8.77;1.42;;;;;;;3.71;93.98;98456.25;5051113;28;20282;-41
2023/03/07 08:44:00;;;;;;;8.55;1.83;;;;;;;3.66;93.02;98460.91;5051977;28;20239;-42
2023/03/07 08:46:26;;;;;;;7.85;1.52;;;;;;;3.48;92.38;98451.22;5051100;28;20259;-41
2023/03/07 08:48:52;;;;;;;10.57;2.08;;;;;;;3.72;91.18;98452.69;5051732;28;20270;-41
2023/03/07 08:51:18;;;;;;;10.73;2.45;;;;;;;3.77;90.38;98456.91;5051598;28;20250;-41
2023/03/07 08:53:44;;;;;;;9.25;1.77;;;;;;;4.14;90.00;98469.19;5050346;28;20214;-42
2023/03/07 08:56:13;;;;;;;9.00;1.70;;;;;;;3.84;89.14;98451.22;5052184;28;20184;-40
2023/03/07 08:58:38;;;;;;;8.00;1.77;;;;;;;3.55;89.28;98473.81;5051294;28;20367;-44
2023/03/07 09:01:05;;;;;;;9.07;1.80;;;;;;;3.22;89.51;98479.75;5050643;28;20165;-41
2023/03/07 09:03:32;;;;;;;9.23;1.92;;;;;;;3.07;89.88;98488.38;5051339;28;20196;-42
2023/03/07 09:05:57;;;;;;;6.50;1.80;;;;;;;3.25;89.80;98490.19;5051029;28;20695;-41
2023/03/07 09:08:23;;;;;;;9.68;1.92;;;;;;;3.34;90.13;98493.34;5050189;28;20187;-41
2023/03/07 09:10:48;;;;;;;12.00;1.70;;;;;;;3.34;90.25;98511.88;5051738;28;20199;-39
2023/03/07 09:13:14;;;;;;;11.45;1.98;;;;;;;3.17;90.50;98525.84;5050079;28;20328;-43
2023/03/07 09:15:40;;;;;;;8.50;2.00;;;;;;;2.95;90.81;98524.19;5052052;28;20532;-42
2023/03/07 09:18:07;;;;;;;14.25;2.25;;;;;;;2.85;91.61;98531.66;5049281;28;20584;-42
2023/03/07 09:20:33;;;;;;;11.73;1.80;;;;;;;2.86;92.11;98529.88;5049414;28;20170;-41
2023/03/07 09:22:59;;;;;;;7.88;1.63;;;;;;;2.89;92.58;98556.19;5066061;28;20285;-43
2023/03/07 09:25:25;;;;;;;8.35;1.60;;;;;;;2.99;93.20;98551.34;5049382;28;20205;-43
2023/03/07 09:27:54;;;;;;;6.10;1.60;;;;;;;2.85;93.21;98558.09;5050882;28;20241;-41
2023/03/07 09:30:21;;;;;;;6.60;1.50;;;;;;;2.75;92.61;98555.94;5049918;28;20167;-41
2023/03/07 09:32:48;;;;;;;9.25;2.00;;;;;;;2.89;92.43;98567.63;5050794;28;20268;-42
2023/03/07 09:35:15;;;;;;;7.15;2.05;;;;;;;3.22;92.00;98572.38;5051521;28;20561;-43
2023/03/07 09:37:40;;;;;;;8.50;1.67;;;;;;;3.36;91.07;98560.28;5051047;28;20554;-43
2023/03/07 09:40:06;;;;;;;9.75;2.30;;;;;;;3.65;90.59;98565.13;5050818;28;20168;-40
2023/03/07 09:42:40;;;;;;;6.38;1.33;;;;;;;3.55;89.91;98561.19;5049082;28;20203;-41
2023/03/07 09:45:30;;;;;;;8.90;1.52;;;;;;;3.80;89.89;98544.13;5065946;28;20237;-40
2023/03/07 09:48:27;;;;;;;6.32;1.55;;;;;;;3.87;89.60;98575.56;5049357;28;20202;-42
2023/03/07 09:51:00;;;;;;;11.32;1.70;;;;;;;3.51;89.14;98573.69;5050893;28;20168;-42
2023/03/07 09:53:36;;;;;;;5.75;1.30;;;;;;;3.59;89.01;98577.78;5049204;28;20206;-40
2023/03/07 09:56:07;;;;;;;5.53;1.10;;;;;;;3.45;88.59;98584.53;5050587;28;20236;-40
2023/03/07 09:58:41;;;;;;;4.72;1.15;;;;;;;3.84;87.21;98572.19;5049922;28;20164;-39
2023/03/07 10:01:11;;;;;;;5.03;1.50;;;;;;;4.21;86.01;98570.44;5049246;28;20164;-40
2023/03/07 10:03:55;;;;;;;4.80;0.98;;;;;;;4.32;84.36;98557.50;5048787;28;20199;-42
2023/03/07 10:06:37;;;;;;;2.08;0.82;;;;;;;4.05;82.44;98559.72;5050443;28;20630;-41
2023/03/07 10:09:06;;;;;;;5.80;1.13;;;;;;;4.38;81.01;98546.63;5049045;28;20196;-43
2023/03/07 10:12:17;;;;;;;10.52;1.48;;;;;;;4.00;80.11;98543.19;5048790;28;20263;-43
2023/03/07 10:14:53;;;;;;;4.63;1.20;;;;;;;4.05;79.96;98543.84;5049966;28;20253;-41
2023/03/07 10:17:49;;;;;;;3.83;1.27;;;;;;;3.75;80.20;98559.38;5049272;28;20182;-41
2023/03/07 10:20:36;;;;;;;7.80;1.63;;;;;;;3.64;80.69;98575.78;5048679;28;20167;-42
2023/03/07 10:23:16;;;;;;;6.38;1.42;;;;;;;3.51;80.53;98591.38;5049326;28;20733;-40
2023/03/07 10:26:28;;;;;;;6.35;1.25;;;;;;;3.23;80.86;98595.25;5048827;28;20183;-43
2023/03/07 10:28:58;;;;;;;5.60;0.93;;;;;;;2.96;80.73;98612.34;5029729;28;20272;-41
2023/03/07 10:31:39;;;;;;;6.75;1.23;;;;;;;2.96;81.39;98599.13;5049760;28;20163;-41
2023/03/07 10:34:20;;;;;;;6.07;1.20;;;;;;;2.70;81.40;98610.78;5049121;28;20155;-44
2023/03/07 10:36:49;;;;;;;3.72;1.10;;;;;;;3.22;82.13;98616.50;5048498;28;20254;-42
2023/03/07 10:39:26;;;;;;;6.95;1.48;;;;;;;3.14;82.62;98610.69;5049350;28;20578;-42
2023/03/07 10:41:53;;;;;;;3.95;1.33;;;;;;;2.93;83.01;98644.19;5049619;28;20555;-42
2023/03/07 10:44:20;;;;;;;8.30;1.55;;;;;;;2.74;83.26;98626.47;5049911;28;20155;-41
2023/03/07 10:46:53;;;;;;;5.32;1.38;;;;;;;2.98;83.39;98632.50;5049967;28;20184;-43
2023/03/07 10:49:25;;;;;;;6.88;1.67;;;;;;;3.65;83.24;98641.03;5049635;28;20634;-41
2023/03/07 10:51:58;;;;;;;6.82;1.35;;;;;;;3.83;81.46;98624.31;5049872;28;20618;-41
2023/03/07 10:54:29;;;;;;;7.13;1.35;;;;;;;3.84;80.46;98623.38;5049638;28;20164;-42
2023/03/07 10:57:16;;;;;;;6.35;1.48;;;;;;;3.37;79.21;98626.41;5050070;28;20155;-43
2023/03/07 10:59:44;;;;;;;5.40;1.20;;;;;;;3.05;79.75;98619.88;5049935;28;20201;-41
2023/03/07 11:02:35;;;;;;;6.57;1.33;;;;;;;2.85;80.51;98628.66;5048366;28;20256;-42
2023/03/07 11:05:16;;;;;;;4.25;1.20;;;;;;;2.53;81.38;98628.19;5042173;28;20316;-42
2023/03/07 11:07:42;;;;;;;7.47;1.35;;;;;;;2.24;82.90;98658.44;5049237;28;20251;-43
2023/03/07 11:10:31;;;;;;;4.75;1.10;;;;;;;2.30;83.99;98660.00;5049016;28;20258;-42
2023/03/07 11:12:56;;;;;;;4.75;1.08;;;;;;;2.37;83.76;98672.03;5048969;28;20195;-41
2023/03/07 11:15:23;;;;;;;6.60;1.52;;;;;;;2.38;84.19;98671.09;5047630;28;20530;-45
2023/03/07 11:17:50;;;;;;;9.80;1.25;;;;;;;2.42;83.95;98673.56;5049872;28;20536;-42
2023/03/07 11:20:25;;;;;;;4.25;1.25;;;;;;;2.39;84.37;98680.78;5050345;28;20163;-41
2023/03/07 11:23:11;;;;;;;7.03;1.65;;;;;;;2.85;84.27;98695.63;5049713;28;20209;-43
2023/03/07 11:25:37;;;;;;;7.45;1.98;;;;;;;3.21;83.75;98663.25;5050031;28;20506;-42
2023/03/07 11:28:02;;;;;;;5.65;1.05;;;;;;;3.59;82.66;98678.41;5049781;28;20206;-39
2023/03/07 11:30:44;;;;;;;3.88;1.83;;;;;;;3.78;81.13;98666.03;5050031;28;20664;-40
2023/03/07 11:33:22;;;;;;;11.05;1.70;;;;;;;3.37;79.79;98684.63;5050359;28;20670;-40
2023/03/07 11:36:05;;;;;;;4.68;1.20;;;;;;;2.44;81.10;98692.00;5049681;28;20163;-41